This is the latest recevied weather packets stored in our database for station/object KC5TIL. If no packets are shown the sender has not sent any weather packets the latest 10 day(s).
| Time | Temp. | Humidity | Pressure | Rain* | Wind** | Luminosity | Snow |
|---|---|---|---|---|---|---|---|
| 1777495299 | 18.89° C | 76% | 1014.5 hPa | 0 mm | - | 298 W/m² | - |
| 1777494998 | 18.89° C | 76% | 1014.5 hPa | 0 mm | - | 336 W/m² | - |
| 1777494695 | 19.44° C | 76% | 1014.3 hPa | 0 mm | - | 408 W/m² | - |
| 1777494392 | 18.89° C | 77% | 1014.1 hPa | 0 mm | - | 668 W/m² | - |
| 1777494088 | 18.89° C | 76% | 1014.5 hPa | 0 mm | - | 677 W/m² | - |
| 1777493786 | 18.33° C | 78% | 1014.8 hPa | 0 mm | - | 389 W/m² | - |
| 1777493484 | 17.78° C | 79% | 1014.9 hPa | 0 mm | - | 314 W/m² | - |
| 1777493180 | 17.78° C | 80% | 1015.2 hPa | 0 mm | - | 331 W/m² | - |
| 1777492877 | 17.78° C | 79% | 1015.3 hPa | 0 mm | - | 299 W/m² | - |
| 1777492574 | 17.78° C | 80% | 1015.3 hPa | 0 mm | - | 365 W/m² | - |
| 1777492269 | 17.78° C | 80% | 1015.7 hPa | 0 mm | - | 357 W/m² | - |
| 1777491966 | 17.78° C | 81% | 1015.6 hPa | 0 mm | - | 367 W/m² | - |
| 1777491662 | 17.78° C | 81% | 1016.3 hPa | 0 mm | - | 443 W/m² | - |
| 1777491361 | 17.78° C | 81% | 1016.4 hPa | 0 mm | - | 441 W/m² | - |
| 1777491057 | 17.22° C | 82% | 1016.6 hPa | 0 mm | - | 629 W/m² | - |
| 1777490751 | 16.67° C | 86% | 1016.3 hPa | 0 mm | - | 449 W/m² | - |
| 1777490449 | 16.67° C | 85% | 1016.5 hPa | 1.27 mm | - | 350 W/m² | - |
| 1777490145 | 16.67° C | 86% | 1016.6 hPa | 1.27 mm | - | 469 W/m² | - |
| 1777489843 | 16.67° C | 87% | 1016.4 hPa | 0 mm | - | 337 W/m² | - |
| 1777489540 | 16.67° C | 86% | 1016.3 hPa | 6.6 mm | - | 557 W/m² | - |
| 1777489237 | 16.11° C | 86% | 1015.9 hPa | 6.6 mm | - | 914 W/m² | - |
| 1777488934 | 16.11° C | 82% | 1017.2 hPa | 0 mm | - | 110 W/m² | - |
| 1777488631 | 16.11° C | 83% | 1018.2 hPa | 0 mm | - | 13 W/m² | - |
| 1777488329 | 16.11° C | 82% | 1016.9 hPa | 0 mm | - | 35 W/m² | - |
| 1777488027 | 16.11° C | 82% | 1016.6 hPa | 0 mm | - | 62 W/m² | - |
* Rain latest hour (hover to see other rain measurements)
** Current wind speed in m/s (hover to see current wind gust speed)